Time;durP1;ratioP1;P1;durP2;ratioP2;P2;SDS_P1;SDS_P2;PMS_P1;PMS_P2;Temp;Humidity;BMP_temperature;BMP_pressure;BME280_temperature;BME280_humidity;BME280_pressure;Samples;Min_cycle;Max_cycle;Signal;HPM_P1;HPM_P2
2021/08/13 00:00:39;;;;;;;5.97;3.17;;;;;;;15.18;73.20;101889.22;1765057;80;21646;-80
2021/08/13 00:03:07;;;;;;;4.83;3.00;;;;;;;15.15;73.16;101894.47;1763675;80;21094;-80
2021/08/13 00:05:39;;;;;;;7.00;2.95;;;;;;;15.12;73.26;101888.64;1745606;80;21396;-80
2021/08/13 00:08:06;;;;;;;6.53;3.65;;;;;;;15.11;73.30;101892.61;1768038;80;22533;-80
2021/08/13 00:10:32;;;;;;;4.12;2.83;;;;;;;15.08;73.30;101885.45;1770411;80;21011;-80
2021/08/13 00:12:59;;;;;;;7.45;3.10;;;;;;;15.07;73.31;101894.28;1771645;80;21126;-80
2021/08/13 00:15:29;;;;;;;5.40;3.30;;;;;;;15.07;73.37;101893.36;1767117;80;21055;-80
2021/08/13 00:17:56;;;;;;;4.42;3.27;;;;;;;15.04;73.39;101891.98;1741893;81;21082;-80
2021/08/13 00:20:23;;;;;;;10.65;3.47;;;;;;;15.01;73.46;101887.48;1772878;80;21845;-79
2021/08/13 00:22:50;;;;;;;5.95;3.20;;;;;;;15.00;73.52;101897.64;1772275;80;21135;-79
2021/08/13 00:25:17;;;;;;;6.45;3.10;;;;;;;14.98;73.60;101899.36;1772837;80;21003;-79
2021/08/13 00:27:47;;;;;;;6.15;3.05;;;;;;;14.95;73.66;101893.52;1715006;82;21133;-80
2021/08/13 00:30:13;;;;;;;9.35;3.67;;;;;;;14.94;73.73;101900.11;1759745;81;21541;-80
2021/08/13 00:32:39;;;;;;;5.12;2.80;;;;;;;14.91;73.75;101900.94;1756668;81;21724;-80
2021/08/13 00:35:07;;;;;;;3.83;2.95;;;;;;;14.88;73.78;101890.69;1757930;81;21627;-80
2021/08/13 00:37:37;;;;;;;7.28;2.98;;;;;;;14.86;73.83;101892.40;1757039;81;21111;-79
2021/08/13 00:40:06;;;;;;;5.15;3.58;;;;;;;14.84;73.90;101887.05;1754773;81;21153;-79
2021/08/13 00:42:33;;;;;;;8.25;3.27;;;;;;;14.83;74.00;101895.88;1754752;81;21557;-80
2021/08/13 00:45:00;;;;;;;4.37;3.22;;;;;;;14.81;74.04;101891.37;1755862;81;21826;-79
2021/08/13 00:47:30;;;;;;;4.92;3.33;;;;;;;14.80;74.10;101896.23;1754823;81;21147;-80
2021/08/13 00:49:59;;;;;;;5.62;3.37;;;;;;;14.78;74.17;101886.47;1753727;81;21568;-80
2021/08/13 00:52:26;;;;;;;7.22;3.10;;;;;;;14.77;74.19;101887.34;1755906;81;21529;-79
2021/08/13 00:54:53;;;;;;;5.20;3.33;;;;;;;14.75;74.22;101885.48;1758959;80;21091;-79
2021/08/13 00:57:24;;;;;;;6.70;3.40;;;;;;;14.73;74.24;101888.13;1735841;81;21770;-79
2021/08/13 00:59:54;;;;;;;4.20;2.85;;;;;;;14.72;74.29;101891.62;1728243;81;21148;-80
2021/08/13 01:02:21;;;;;;;5.35;2.90;;;;;;;14.71;74.29;101887.59;1752288;80;21062;-79
2021/08/13 01:04:47;;;;;;;5.22;3.27;;;;;;;14.70;74.34;101888.03;1774962;80;21039;-79
2021/08/13 01:07:17;;;;;;;5.05;3.05;;;;;;;14.71;74.32;101887.59;1775455;80;21497;-79
2021/08/13 01:09:46;;;;;;;5.28;3.15;;;;;;;14.69;74.31;101882.69;1772096;80;22561;-79
2021/08/13 01:12:36;;;;;;;3.52;2.87;;;;;;;14.68;74.29;101885.77;1769847;80;20992;-79
2021/08/13 01:15:10;;;;;;;7.50;2.98;;;;;;;14.67;74.30;101886.61;1772992;80;20984;-80
2021/08/13 01:17:47;;;;;;;4.40;2.98;;;;;;;14.67;74.33;101885.73;1765222;80;21102;-79
2021/08/13 01:20:40;;;;;;;3.05;2.52;;;;;;;14.66;74.31;101879.94;1767944;80;21010;-80
2021/08/13 01:23:21;;;;;;;5.37;2.87;;;;;;;14.64;74.34;101876.36;1775365;80;21785;-79
2021/08/13 01:25:54;;;;;;;3.83;2.90;;;;;;;14.62;74.40;101886.03;1810387;78;21058;-79
2021/08/13 01:28:51;;;;;;;6.55;3.45;;;;;;;14.61;74.39;101881.60;1771784;80;21256;-79
2021/08/13 01:31:23;;;;;;;7.58;3.05;;;;;;;14.58;74.40;101883.31;1773371;80;21117;-79
2021/08/13 01:34:06;;;;;;;4.72;2.83;;;;;;;14.56;74.48;101885.40;1768594;80;21051;-79
2021/08/13 01:36:35;;;;;;;4.80;3.00;;;;;;;14.53;74.52;101886.66;1733628;82;21819;-78
2021/08/13 01:39:04;;;;;;;5.62;3.42;;;;;;;14.50;74.56;101886.57;1745240;80;21055;-78
2021/08/13 01:41:37;;;;;;;7.17;3.67;;;;;;;14.47;74.56;101882.09;1749054;81;21118;-78
2021/08/13 01:44:08;;;;;;;6.57;3.63;;;;;;;14.46;74.58;101888.67;1718351;82;21028;-78
2021/08/13 01:46:34;;;;;;;4.65;3.35;;;;;;;14.44;74.61;101878.47;1751589;81;21043;-78
2021/08/13 01:49:07;;;;;;;5.10;2.92;;;;;;;14.41;74.63;101880.58;1745464;81;22788;-78
2021/08/13 01:51:33;;;;;;;2.98;2.45;;;;;;;14.40;74.69;101884.10;1752944;81;21607;-78
2021/08/13 01:54:04;;;;;;;4.75;2.83;;;;;;;14.39;74.73;101875.67;1746646;81;21035;-78
2021/08/13 01:56:30;;;;;;;5.10;3.27;;;;;;;14.35;74.76;101870.72;1742285;82;21122;-78
2021/08/13 01:58:59;;;;;;;4.95;3.60;;;;;;;14.33;74.80;101868.89;1747506;81;21030;-79
2021/08/13 02:01:33;;;;;;;4.67;3.30;;;;;;;14.32;74.84;101870.66;1742322;82;21866;-78
2021/08/13 02:04:01;;;;;;;6.47;3.30;;;;;;;14.30;74.85;101866.15;1709853;81;21035;-79
2021/08/13 02:06:31;;;;;;;4.78;3.37;;;;;;;14.28;74.90;101865.21;1741940;81;21580;-78
2021/08/13 02:08:58;;;;;;;4.55;3.40;;;;;;;14.26;74.90;101870.89;1745699;81;21091;-79
2021/08/13 02:11:27;;;;;;;6.20;3.72;;;;;;;14.24;74.95;101869.95;1745404;81;21097;-79
2021/08/13 02:13:57;;;;;;;7.25;4.58;;;;;;;14.22;74.95;101869.02;1748882;80;21074;-79
2021/08/13 02:16:27;;;;;;;5.55;3.60;;;;;;;14.20;75.03;101871.19;1741452;81;21043;-79
2021/08/13 02:19:11;;;;;;;4.47;3.75;;;;;;;14.18;75.02;101875.55;1765948;80;21587;-79
2021/08/13 02:21:46;;;;;;;7.92;4.35;;;;;;;14.16;75.03;101875.93;1718749;81;21366;-79
2021/08/13 02:24:13;;;;;;;6.27;4.00;;;;;;;14.13;75.07;101874.54;1755742;81;21082;-81
2021/08/13 02:26:40;;;;;;;5.40;4.05;;;;;;;14.12;75.14;101874.49;1750490;81;21956;-78
2021/08/13 02:29:06;;;;;;;6.25;4.00;;;;;;;14.10;75.23;101881.50;1742050;81;21090;-78
2021/08/13 02:31:33;;;;;;;7.70;3.80;;;;;;;14.08;75.36;101876.16;1751990;81;21543;-78
2021/08/13 02:34:00;;;;;;;5.85;4.30;;;;;;;14.05;75.38;101874.73;1750610;81;21043;-78
2021/08/13 02:36:40;;;;;;;6.03;4.25;;;;;;;14.04;75.46;101873.36;1745116;81;21101;-79
2021/08/13 02:39:24;;;;;;;9.28;4.08;;;;;;;14.03;75.52;101872.91;1742684;81;21828;-81
2021/08/13 02:41:51;;;;;;;5.78;3.77;;;;;;;14.02;75.56;101873.34;1775593;80;21604;-79
2021/08/13 02:44:18;;;;;;;8.98;4.65;;;;;;;13.99;75.60;101874.56;1771888;80;21555;-79
2021/08/13 02:46:57;;;;;;;7.15;4.40;;;;;;;13.98;75.61;101869.70;1772703;80;21078;-80
2021/08/13 02:49:25;;;;;;;11.05;4.90;;;;;;;13.97;75.64;101873.63;1772505;80;21078;-79
2021/08/13 02:52:06;;;;;;;7.75;4.22;;;;;;;13.94;75.66;101868.23;1772303;80;22395;-79
2021/08/13 02:54:34;;;;;;;7.75;4.85;;;;;;;13.91;75.68;101871.70;1740465;81;21067;-80
2021/08/13 02:57:00;;;;;;;7.30;4.60;;;;;;;13.90;75.72;101873.86;1742020;81;21567;-79
2021/08/13 02:59:30;;;;;;;7.85;4.10;;;;;;;13.87;75.72;101867.57;1743004;81;21514;-79
2021/08/13 03:02:00;;;;;;;7.95;5.47;;;;;;;13.86;75.75;101873.73;1746330;81;21027;-79
2021/08/13 03:04:27;;;;;;;6.37;4.78;;;;;;;13.83;75.80;101875.84;1801541;78;22483;-79
2021/08/13 03:06:58;;;;;;;7.08;4.72;;;;;;;13.82;75.86;101871.86;1807256;79;21063;-79
2021/08/13 03:09:26;;;;;;;8.83;4.75;;;;;;;13.82;75.82;101875.83;1772552;80;21137;-79
2021/08/13 03:11:57;;;;;;;9.03;5.28;;;;;;;13.78;75.79;101878.80;1769963;80;21039;-79
2021/08/13 03:14:22;;;;;;;9.75;5.17;;;;;;;13.76;75.87;101883.16;1736586;81;21138;-79
2021/08/13 03:16:58;;;;;;;9.20;5.47;;;;;;;13.74;75.93;101880.45;1774051;80;21869;-79
2021/08/13 03:19:21;;;;;;;10.72;4.87;;;;;;;13.75;75.98;101886.64;1769631;80;21568;-79
2021/08/13 03:21:48;;;;;;;9.88;5.05;;;;;;;13.74;76.04;101881.78;1759236;80;21003;-79
2021/08/13 03:24:15;;;;;;;9.70;5.40;;;;;;;13.74;76.06;101879.53;1810290;78;21564;-79
2021/08/13 03:26:42;;;;;;;10.13;4.97;;;;;;;13.74;76.11;101876.48;1772363;80;21149;-79
2021/08/13 03:29:08;;;;;;;7.25;5.33;;;;;;;13.76;76.16;101876.54;1772702;80;21787;-80
2021/08/13 03:31:43;;;;;;;9.50;5.00;;;;;;;13.78;76.14;101884.98;1766817;80;21050;-80
2021/08/13 03:34:10;;;;;;;8.23;5.90;;;;;;;13.82;76.21;101880.69;1769947;80;21051;-79
2021/08/13 03:36:37;;;;;;;13.53;5.60;;;;;;;13.87;76.22;101879.08;1739919;82;21082;-79
2021/08/13 03:39:12;;;;;;;8.35;5.37;;;;;;;13.93;76.28;101880.58;1775530;80;21122;-79
2021/08/13 03:41:38;;;;;;;;;;;;;;;14.00;76.29;101879.91;1773696;80;21791;-79
2021/08/13 03:44:06;;;;;;;5.85;5.20;;;;;;;14.07;76.32;101878.31;1748286;80;20321;-79
2021/08/13 03:46:33;;;;;;;9.45;5.85;;;;;;;14.16;76.30;101878.58;1801378;78;21130;-80
2021/08/13 03:49:00;;;;;;;9.13;6.47;;;;;;;14.57;77.46;101872.23;1770448;80;21071;-80
2021/08/13 03:51:27;;;;;;;11.48;5.47;;;;;;;15.54;78.05;101874.61;1764608;80;21091;-80
2021/08/13 03:53:57;;;;;;;7.22;5.28;;;;;;;16.63;77.51;101871.05;1770372;80;21835;-80
2021/08/13 03:56:26;;;;;;;10.45;4.83;;;;;;;17.65;76.28;101866.50;1739813;80;21081;-80
2021/08/13 03:58:56;;;;;;;7.20;5.55;;;;;;;18.67;75.09;101873.48;1762743;80;21516;-80
2021/08/13 04:01:21;;;;;;;7.20;4.55;;;;;;;19.55;73.52;101865.28;1743039;80;21107;-80
2021/08/13 04:03:52;;;;;;;5.20;4.70;;;;;;;20.41;72.12;101863.89;1771166;80;21363;-80
2021/08/13 04:06:20;;;;;;;7.95;4.53;;;;;;;21.29;71.03;101870.19;1754668;80;21053;-80
2021/08/13 04:08:47;;;;;;;9.28;5.25;;;;;;;22.26;69.89;101871.22;1781460;80;21026;-80
2021/08/13 04:11:18;;;;;;;9.58;4.85;;;;;;;22.93;67.82;101870.33;1770344;80;21044;-79
2021/08/13 04:13:46;;;;;;;6.15;4.62;;;;;;;23.38;66.12;101859.62;1761828;80;21103;-81
2021/08/13 04:16:11;;;;;;;10.30;4.00;;;;;;;22.81;63.64;101865.95;1761192;80;21067;-80
2021/08/13 04:18:46;;;;;;;6.17;4.45;;;;;;;21.90;62.92;101867.80;1772454;80;21890;-80
2021/08/13 04:21:13;;;;;;;5.87;4.40;;;;;;;21.18;63.23;101870.64;1746165;82;21004;-80
2021/08/13 04:23:44;;;;;;;6.67;4.37;;;;;;;21.25;64.39;101873.77;1771626;80;21671;-82
2021/08/13 04:26:10;;;;;;;10.08;4.90;;;;;;;21.76;64.89;101868.32;1772190;80;21322;-80
2021/08/13 04:28:37;;;;;;;10.28;4.97;;;;;;;22.31;63.87;101869.41;1762066;80;21064;-82
2021/08/13 04:31:07;;;;;;;9.25;5.00;;;;;;;22.73;62.65;101855.28;1771979;80;21243;-82
2021/08/13 04:33:35;;;;;;;8.28;4.50;;;;;;;22.69;61.91;101857.52;1756339;80;21323;-81
2021/08/13 04:36:05;;;;;;;11.08;5.67;;;;;;;22.31;60.68;101853.32;1770789;80;21840;-82
2021/08/13 04:38:33;;;;;;;9.43;5.10;;;;;;;21.66;60.34;101862.07;1755368;80;21576;-81
2021/08/13 04:41:05;;;;;;;13.13;5.58;;;;;;;20.96;60.32;101857.27;1772030;80;21039;-81
2021/08/13 04:43:30;;;;;;;18.15;5.58;;;;;;;20.46;60.81;101856.73;1793253;78;22024;-81
2021/08/13 04:46:06;;;;;;;20.60;5.85;;;;;;;20.80;62.37;101858.14;1776266;80;21074;-79
2021/08/13 04:48:37;;;;;;;7.65;4.40;;;;;;;22.35;63.30;101855.08;1767568;80;21115;-80
2021/08/13 04:51:10;;;;;;;10.55;4.60;;;;;;;24.49;62.59;101853.30;1736870;82;21064;-80
2021/08/13 04:53:40;;;;;;;14.18;4.80;;;;;;;26.52;60.66;101861.11;1757958;81;21070;-80
2021/08/13 04:56:06;;;;;;;12.88;4.10;;;;;;;28.15;58.51;101854.48;1759928;81;22045;-79
2021/08/13 04:58:35;;;;;;;14.70;4.08;;;;;;;29.49;56.29;101855.45;1761494;80;21008;-79
2021/08/13 05:01:02;;;;;;;6.70;3.58;;;;;;;30.62;54.64;101861.52;1753204;80;21087;-80
2021/08/13 05:03:29;;;;;;;6.85;3.50;;;;;;;31.71;52.92;101861.34;1724919;81;21739;-80
2021/08/13 05:05:57;;;;;;;6.42;3.83;;;;;;;32.69;51.61;101855.75;1696797;81;21876;-80
2021/08/13 05:08:24;;;;;;;6.80;3.55;;;;;;;33.66;50.01;101857.55;1796749;78;21906;-79
2021/08/13 05:11:01;;;;;;;7.60;3.08;;;;;;;34.43;48.34;101855.97;1707268;81;21078;-80
2021/08/13 05:13:30;;;;;;;6.00;3.67;;;;;;;35.11;46.91;101858.80;1768505;80;21083;-84
2021/08/13 05:15:57;;;;;;;6.03;3.30;;;;;;;35.79;45.55;101856.86;1761821;80;21268;-79
2021/08/13 05:18:26;;;;;;;5.28;3.00;;;;;;;36.34;44.10;101853.76;1771499;80;21097;-80
2021/08/13 05:20:53;;;;;;;4.40;3.25;;;;;;;36.88;43.05;101856.51;1764942;80;22816;-80
2021/08/13 05:23:19;;;;;;;5.62;2.72;;;;;;;37.29;41.58;101854.64;1773283;80;21050;-80
2021/08/13 05:25:52;;;;;;;4.05;2.72;;;;;;;37.68;40.65;101848.69;1744124;80;21623;-80
2021/08/13 05:28:16;;;;;;;4.30;2.70;;;;;;;38.09;39.62;101849.78;1776157;80;21067;-80
2021/08/13 05:30:43;;;;;;;3.20;2.90;;;;;;;38.46;38.87;101847.48;1777304;80;21008;-80
2021/08/13 05:33:12;;;;;;;6.87;2.62;;;;;;;38.65;37.86;101854.77;1773834;80;21816;-80
2021/08/13 05:35:39;;;;;;;4.67;2.62;;;;;;;38.80;37.28;101853.17;1777542;80;21658;-80
2021/08/13 05:38:06;;;;;;;4.65;2.58;;;;;;;39.06;36.62;101856.20;1768257;80;21050;-80
2021/08/13 05:40:33;;;;;;;6.87;2.90;;;;;;;38.94;35.68;101857.63;1777331;80;21054;-79
2021/08/13 05:43:00;;;;;;;4.67;2.95;;;;;;;37.97;34.98;101858.02;1777603;80;21066;-80
2021/08/13 05:45:27;;;;;;;7.10;3.02;;;;;;;36.53;34.46;101852.06;1777566;80;21741;-79
2021/08/13 05:47:57;;;;;;;4.20;2.75;;;;;;;34.91;34.58;101851.30;1777440;80;21634;-80
2021/08/13 05:50:26;;;;;;;3.85;2.50;;;;;;;33.29;34.81;101852.67;1777061;80;21056;-80
2021/08/13 05:52:51;;;;;;;7.60;2.87;;;;;;;31.65;35.56;101854.83;1777211;80;21094;-80
2021/08/13 05:55:20;;;;;;;5.20;3.27;;;;;;;30.40;36.61;101856.95;1764656;80;21055;-80
2021/08/13 05:57:50;;;;;;;3.50;2.70;;;;;;;29.38;37.33;101849.54;1772486;80;21810;-80
2021/08/13 06:00:16;;;;;;;8.23;3.50;;;;;;;28.42;38.29;101850.50;1767057;80;20995;-79
2021/08/13 06:02:58;;;;;;;4.35;3.25;;;;;;;27.64;39.13;101855.96;1772970;80;21035;-79
2021/08/13 06:05:28;;;;;;;7.58;3.12;;;;;;;26.95;39.93;101858.72;1775275;80;21086;-79
2021/08/13 06:07:55;;;;;;;7.00;3.55;;;;;;;26.22;40.78;101853.23;1770335;80;21073;-79
2021/08/13 06:10:21;;;;;;;4.28;3.12;;;;;;;25.67;41.61;101855.29;1770802;80;21784;-79
2021/08/13 06:12:49;;;;;;;5.30;3.62;;;;;;;25.17;42.25;101855.77;1775103;80;21070;-80
2021/08/13 06:15:15;;;;;;;6.10;3.37;;;;;;;24.74;43.10;101859.20;1761209;80;21015;-80
2021/08/13 06:17:46;;;;;;;10.82;3.67;;;;;;;24.32;43.66;101853.55;1768339;80;21579;-81
2021/08/13 06:20:14;;;;;;;5.83;3.15;;;;;;;23.99;44.58;101860.73;1776959;80;21560;-80
2021/08/13 06:22:41;;;;;;;6.05;3.15;;;;;;;23.70;44.97;101858.36;1768513;80;22726;-80
2021/08/13 06:25:08;;;;;;;6.00;2.98;;;;;;;23.46;45.70;101858.19;1765691;80;21086;-80
2021/08/13 06:27:36;;;;;;;8.90;3.08;;;;;;;23.24;46.25;101859.77;1763270;80;21060;-80
2021/08/13 06:30:04;;;;;;;7.30;3.52;;;;;;;23.13;46.88;101864.36;1719474;80;21082;-80
2021/08/13 06:32:31;;;;;;;5.37;3.80;;;;;;;22.97;47.44;101859.98;1767851;80;21043;-80
2021/08/13 06:34:57;;;;;;;8.03;3.30;;;;;;;22.80;47.74;101861.02;1772274;80;22621;-80
2021/08/13 06:37:24;;;;;;;10.63;3.65;;;;;;;22.63;48.01;101861.14;1760248;80;21050;-80
2021/08/13 06:39:51;;;;;;;5.47;3.77;;;;;;;22.52;48.50;101865.70;1764236;80;21059;-80
2021/08/13 06:42:18;;;;;;;7.83;3.33;;;;;;;22.44;48.95;101861.73;1777334;80;21015;-80
2021/08/13 06:44:45;;;;;;;3.98;3.47;;;;;;;22.38;49.34;101859.09;1769603;80;21050;-80
2021/08/13 06:47:11;;;;;;;7.80;4.03;;;;;;;22.29;49.56;101863.17;1774051;80;21713;-80
2021/08/13 06:49:41;;;;;;;6.25;4.20;;;;;;;22.19;49.87;101864.11;1775161;80;21051;-80
2021/08/13 06:52:10;;;;;;;7.72;4.10;;;;;;;22.13;50.30;101857.87;1775582;80;21082;-79
2021/08/13 06:54:37;;;;;;;6.08;4.05;;;;;;;22.12;50.78;101861.89;1777549;80;21368;-78
2021/08/13 06:57:04;;;;;;;12.25;5.47;;;;;;;22.10;51.08;101860.55;1777703;80;21078;-79
2021/08/13 06:59:30;;;;;;;7.62;5.30;;;;;;;22.08;51.26;101864.16;1773901;80;23032;-79
2021/08/13 07:01:58;;;;;;;15.95;6.03;;;;;;;22.01;51.60;101861.05;1753365;80;39253;-79
2021/08/13 07:04:25;;;;;;;15.83;5.70;;;;;;;21.93;51.91;101861.97;1777369;80;21081;-79
2021/08/13 07:06:51;;;;;;;8.18;5.12;;;;;;;21.88;52.31;101858.41;1777529;80;21686;-79
2021/08/13 07:09:18;;;;;;;8.55;4.42;;;;;;;21.87;52.55;101856.65;1760350;80;21032;-79
2021/08/13 07:11:45;;;;;;;13.72;5.70;;;;;;;21.85;52.81;101850.86;1771837;80;21725;-79
2021/08/13 07:14:12;;;;;;;8.00;4.95;;;;;;;21.86;53.08;101851.28;1767716;80;21154;-79
2021/08/13 07:16:39;;;;;;;9.45;4.65;;;;;;;21.88;53.26;101852.17;1771209;80;21015;-79
2021/08/13 07:19:05;;;;;;;10.13;4.92;;;;;;;21.86;53.47;101859.33;1777407;80;21465;-79
2021/08/13 07:21:32;;;;;;;9.93;7.22;;;;;;;21.88;53.80;101855.73;1769882;80;21125;-79
2021/08/13 07:23:59;;;;;;;8.85;4.60;;;;;;;21.93;54.00;101853.93;1774585;80;22422;-79
2021/08/13 07:26:26;;;;;;;8.95;4.62;;;;;;;22.00;53.96;101852.12;1765025;80;21058;-78
2021/08/13 07:28:53;;;;;;;10.78;3.90;;;;;;;22.00;54.07;101849.88;1766096;80;21047;-78
2021/08/13 07:31:19;;;;;;;6.33;4.10;;;;;;;22.06;54.32;101849.41;1776947;80;21077;-78
2021/08/13 07:33:46;;;;;;;7.72;4.37;;;;;;;22.14;54.36;101850.70;1767606;80;21026;-78
2021/08/13 07:36:13;;;;;;;4.78;3.83;;;;;;;22.20;54.48;101848.44;1771106;80;21791;-78
2021/08/13 07:38:40;;;;;;;8.88;4.97;;;;;;;22.30;54.74;101855.12;1766032;80;21097;-78
2021/08/13 07:41:11;;;;;;;6.78;3.80;;;;;;;22.41;54.66;101855.48;1770554;80;21052;-79
2021/08/13 07:43:42;;;;;;;5.58;3.40;;;;;;;22.51;54.72;101862.59;1808016;79;21070;-79
2021/08/13 07:46:09;;;;;;;4.20;3.52;;;;;;;22.65;55.00;101857.11;1802928;79;21623;-78
2021/08/13 07:48:36;;;;;;;6.05;3.77;;;;;;;22.78;54.98;101852.09;1808269;78;21810;-78
2021/08/13 07:51:04;;;;;;;6.12;3.98;;;;;;;22.84;54.93;101841.32;1753690;80;21106;-79
2021/08/13 07:53:31;;;;;;;9.13;5.00;;;;;;;22.84;54.93;101841.32;1768040;80;21541;-78
2021/08/13 07:55:58;;;;;;;8.73;4.12;;;;;;;23.02;54.78;101859.50;1772195;80;21035;-80
2021/08/13 07:58:25;;;;;;;10.58;3.40;;;;;;;23.08;54.81;101860.36;1769272;80;21078;-78
2021/08/13 08:00:52;;;;;;;9.05;4.35;;;;;;;23.18;54.86;101859.84;1769172;80;22461;-78
2021/08/13 08:03:19;;;;;;;7.37;3.85;;;;;;;23.24;54.69;101858.42;1769934;80;21101;-80
2021/08/13 08:05:46;;;;;;;6.30;3.70;;;;;;;23.28;54.57;101856.61;1759112;80;21067;-80
2021/08/13 08:08:13;;;;;;;8.18;4.03;;;;;;;23.19;54.62;101837.89;1769003;80;21066;-80
2021/08/13 08:10:45;;;;;;;8.10;4.58;;;;;;;23.27;54.71;101826.60;1765751;80;21047;-80
2021/08/13 08:13:08;;;;;;;10.93;4.55;;;;;;;23.27;54.71;101826.60;1760826;80;21330;-80
2021/08/13 08:15:35;;;;;;;8.83;4.72;;;;;;;23.39;54.48;101854.70;1777192;80;21046;-79
2021/08/13 08:18:02;;;;;;;9.20;4.90;;;;;;;23.41;54.44;101852.00;1769644;80;21063;-79
2021/08/13 08:20:29;;;;;;;6.75;4.25;;;;;;;23.40;54.38;101851.08;1777540;80;21066;-79
2021/08/13 08:22:56;;;;;;;6.58;4.03;;;;;;;23.44;54.65;101842.11;1777345;80;21118;-79
2021/08/13 08:25:22;;;;;;;9.50;3.52;;;;;;;23.54;54.47;101847.34;1777575;80;21695;-79
2021/08/13 08:27:49;;;;;;;8.25;4.60;;;;;;;23.63;54.35;101848.16;1777233;80;21611;-79
2021/08/13 08:30:16;;;;;;;9.88;4.37;;;;;;;23.70;54.35;101842.23;1807300;79;21059;-79
2021/08/13 08:32:42;;;;;;;17.10;5.22;;;;;;;23.80;54.28;101841.27;1808443;78;21114;-80
2021/08/13 08:35:14;;;;;;;10.32;3.77;;;;;;;23.87;54.13;101848.78;1770407;80;21035;-79
2021/08/13 08:37:55;;;;;;;5.08;3.52;;;;;;;23.89;53.76;101838.89;1771673;80;21798;-80
2021/08/13 08:40:30;;;;;;;4.55;3.62;;;;;;;23.96;53.90;101843.75;1771113;80;21058;-80
2021/08/13 08:43:02;;;;;;;6.30;3.00;;;;;;;24.02;53.61;101842.31;1776434;80;21075;-80
2021/08/13 08:45:41;;;;;;;5.75;3.25;;;;;;;24.08;53.52;101838.19;1764065;80;21007;-79
2021/08/13 08:48:13;;;;;;;6.70;3.65;;;;;;;24.17;53.40;101835.83;1771487;80;21008;-80
2021/08/13 08:50:41;;;;;;;7.35;3.58;;;;;;;24.24;53.17;101837.53;1774787;80;21901;-80
2021/08/13 08:53:11;;;;;;;7.20;4.25;;;;;;;24.27;52.91;101834.80;1762524;80;21567;-80
2021/08/13 08:55:38;;;;;;;6.53;3.85;;;;;;;24.31;52.94;101837.00;1773882;80;21080;-79
2021/08/13 08:58:05;;;;;;;5.37;3.40;;;;;;;24.36;52.80;101837.36;1765931;80;21296;-80
2021/08/13 09:00:32;;;;;;;7.12;3.15;;;;;;;24.42;52.46;101835.91;1749059;80;21611;-80
2021/08/13 09:02:58;;;;;;;4.60;3.22;;;;;;;24.47;52.30;101833.59;1742160;82;21298;-81
2021/08/13 09:05:25;;;;;;;5.10;3.58;;;;;;;24.49;52.06;101834.46;1737223;82;21019;-80
2021/08/13 09:07:52;;;;;;;5.28;2.75;;;;;;;24.52;51.89;101831.77;1772002;80;21038;-80
2021/08/13 09:10:18;;;;;;;6.10;3.17;;;;;;;24.55;51.76;101829.00;1738201;82;21098;-80
2021/08/13 09:12:45;;;;;;;4.10;2.85;;;;;;;24.60;51.70;101832.52;1767451;80;21009;-80
2021/08/13 09:15:33;;;;;;;7.70;3.15;;;;;;;24.67;51.47;101823.91;1771047;80;21632;-80
2021/08/13 09:18:26;;;;;;;4.67;3.10;;;;;;;24.72;51.09;101817.95;1731897;81;21046;-80
2021/08/13 09:20:58;;;;;;;5.53;3.60;;;;;;;24.75;50.82;101819.27;1807266;79;21054;-80
2021/08/13 09:23:39;;;;;;;7.22;3.45;;;;;;;24.81;50.74;101823.19;1806298;79;21572;-79
2021/08/13 09:26:17;;;;;;;6.45;3.30;;;;;;;24.93;50.77;101827.03;1797426;79;21114;-79
2021/08/13 09:28:59;;;;;;;7.97;2.90;;;;;;;25.05;50.69;101823.69;1799520;79;21785;-79
2021/08/13 09:31:38;;;;;;;6.53;3.15;;;;;;;25.17;50.45;101819.39;1811149;78;21020;-79
2021/08/13 09:34:10;;;;;;;4.33;2.72;;;;;;;25.31;50.20;101816.49;1797350;78;21623;-79
2021/08/13 09:36:54;;;;;;;6.05;4.53;;;;;;;25.46;50.04;101821.57;1800780;78;21556;-80
2021/08/13 09:39:31;;;;;;;7.12;2.87;;;;;;;25.61;49.79;101816.33;1794802;79;21141;-80
2021/08/13 09:42:04;;;;;;;6.87;3.92;;;;;;;25.77;48.92;101817.79;1795516;79;21792;-80
2021/08/13 09:44:33;;;;;;;3.70;3.30;;;;;;;25.87;48.42;101821.17;1775786;78;21073;-80
2021/08/13 09:47:02;;;;;;;6.97;2.80;;;;;;;26.01;48.26;101822.70;1807979;79;21140;-80
2021/08/13 09:49:32;;;;;;;3.90;2.90;;;;;;;26.10;47.82;101820.68;1810131;79;21042;-80
2021/08/13 09:52:17;;;;;;;3.00;2.70;;;;;;;26.17;47.69;101809.30;1809894;79;21564;-80
2021/08/13 09:54:45;;;;;;;3.50;2.60;;;;;;;26.22;47.04;101809.18;1810557;78;22363;-79
2021/08/13 09:57:15;;;;;;;4.37;3.62;;;;;;;26.28;47.10;101816.68;1804655;78;21053;-83
2021/08/13 10:00:28;;;;;;;4.10;3.33;;;;;;;26.30;46.68;101813.48;1804715;79;21047;-83
2021/08/13 10:03:04;;;;;;;6.08;3.05;;;;;;;26.32;46.50;101811.62;1803687;79;21365;-84
2021/08/13 10:05:30;;;;;;;7.78;3.55;;;;;;;26.46;46.55;101805.88;1784951;78;21805;-83
2021/08/13 10:08:00;;;;;;;5.62;3.00;;;;;;;26.69;46.25;101809.86;1811534;78;22766;-83
2021/08/13 10:10:34;;;;;;;3.72;2.52;;;;;;;26.86;45.41;101797.27;1800027;79;20988;-84
2021/08/13 10:13:00;;;;;;;5.62;3.72;;;;;;;27.04;44.73;101796.77;1804116;79;21153;-83
2021/08/13 10:15:33;;;;;;;4.05;2.47;;;;;;;27.22;44.02;101799.45;1781969;79;21186;-84
2021/08/13 10:18:06;;;;;;;2.92;2.05;;;;;;;27.33;43.24;101789.25;1798753;78;21577;-84
2021/08/13 10:20:38;;;;;;;3.75;2.10;;;;;;;27.46;42.93;101791.14;1809627;79;21807;-84
2021/08/13 10:23:05;;;;;;;4.92;2.15;;;;;;;27.59;42.86;101793.47;1755091;80;21623;-84
2021/08/13 10:25:32;;;;;;;4.55;2.87;;;;;;;27.63;42.20;101786.59;1767863;81;21113;-83
2021/08/13 10:28:00;;;;;;;5.92;2.40;;;;;;;27.66;41.92;101786.95;1762312;81;21501;-84
2021/08/13 10:30:27;;;;;;;5.72;4.05;;;;;;;27.73;42.08;101787.19;1768449;80;21090;-84
2021/08/13 10:32:57;;;;;;;2.58;2.25;;;;;;;27.90;41.63;101778.11;1768076;80;21783;-84
2021/08/13 10:35:29;;;;;;;7.15;2.35;;;;;;;28.09;41.52;101784.30;1765432;80;21055;-85
2021/08/13 10:37:58;;;;;;;5.78;2.52;;;;;;;28.26;41.31;101776.98;1775155;80;21772;-80
2021/08/13 10:40:25;;;;;;;5.58;3.10;;;;;;;28.46;40.83;101777.69;1810744;79;20999;-80
2021/08/13 10:42:52;;;;;;;7.08;2.55;;;;;;;28.64;40.61;101773.04;1811481;79;20995;-80
2021/08/13 10:45:29;;;;;;;4.00;2.77;;;;;;;28.85;40.65;101769.13;1805762;79;22640;-80
2021/08/13 10:48:14;;;;;;;3.50;2.45;;;;;;;29.11;40.37;101775.45;1808803;78;21540;-81
2021/08/13 10:50:42;;;;;;;5.60;2.67;;;;;;;29.24;39.83;101774.09;1793254;79;21079;-81
2021/08/13 10:53:32;;;;;;;3.50;2.50;;;;;;;29.40;39.34;101762.22;1794056;79;21054;-82
2021/08/13 10:56:02;;;;;;;4.87;2.72;;;;;;;29.54;39.18;101765.75;1804432;78;21062;-80
2021/08/13 10:58:41;;;;;;;4.15;2.50;;;;;;;29.66;38.81;101760.73;1811346;78;21755;-80
2021/08/13 11:01:16;;;;;;;9.88;3.37;;;;;;;29.72;38.54;101756.02;1806066;78;21004;-80
2021/08/13 11:03:56;;;;;;;5.95;2.50;;;;;;;29.74;38.22;101757.75;1803543;78;21058;-81
2021/08/13 11:06:44;;;;;;;9.38;4.80;;;;;;;29.72;37.85;101756.89;1811664;78;21170;-81
2021/08/13 11:09:14;;;;;;;12.50;4.20;;;;;;;29.59;37.75;101747.47;1814873;79;21544;-80
2021/08/13 11:11:59;;;;;;;9.10;2.70;;;;;;;29.53;37.80;101749.08;1782608;79;21701;-80
2021/08/13 11:14:50;;;;;;;5.85;2.90;;;;;;;29.47;37.60;101758.33;1808256;79;21046;-80
2021/08/13 11:17:41;;;;;;;3.30;3.00;;;;;;;29.39;37.42;101763.14;1803107;78;21180;-80
2021/08/13 11:20:10;;;;;;;4.58;2.50;;;;;;;29.33;37.38;101753.89;1800415;79;21004;-80
2021/08/13 11:22:37;;;;;;;7.25;3.90;;;;;;;29.24;37.20;101757.83;1810398;79;21559;-80
2021/08/13 11:25:09;;;;;;;7.58;2.50;;;;;;;29.23;37.41;101760.14;1811046;78;21741;-80
2021/08/13 11:27:36;;;;;;;6.35;2.95;;;;;;;29.24;37.17;101754.66;1811057;79;21187;-80
2021/08/13 11:30:04;;;;;;;9.38;3.22;;;;;;;29.26;37.18;101752.78;1807094;79;20995;-80
2021/08/13 11:32:36;;;;;;;6.30;3.45;;;;;;;29.29;37.14;101753.60;1802479;79;21232;-80
2021/08/13 11:35:39;;;;;;;4.10;2.72;;;;;;;29.29;37.01;101749.05;1810603;78;21203;-81
2021/08/13 11:41:36;;;;;;;5.25;2.95;;;;;;;29.33;36.98;101745.76;1675865;82;21954;-80